sensor_id;sensor_type;location;lat;lon;timestamp;pressure;altitude;pressure_sealevel;temperature;humidity
56198;BME280;42700;42.524;12.052;2022-12-07T00:00:01;98209.41;;;11.38;100.00
56198;BME280;42700;42.524;12.052;2022-12-07T00:02:26;98114.69;;;11.29;100.00
56198;BME280;42700;42.524;12.052;2022-12-07T00:04:52;98040.97;;;11.22;100.00
56198;BME280;42700;42.524;12.052;2022-12-07T00:07:17;98024.16;;;11.22;100.00
56198;BME280;42700;42.524;12.052;2022-12-07T00:09:43;98007.41;;;11.21;100.00
56198;BME280;42700;42.524;12.052;2022-12-07T00:12:08;97984.84;;;11.17;100.00
56198;BME280;42700;42.524;12.052;2022-12-07T00:14:34;97912.09;;;11.10;100.00
56198;BME280;42700;42.524;12.052;2022-12-07T00:16:59;97871.59;;;11.08;100.00
56198;BME280;42700;42.524;12.052;2022-12-07T00:19:25;97816.47;;;11.02;100.00
56198;BME280;42700;42.524;12.052;2022-12-07T00:21:50;97791.09;;;10.99;100.00
56198;BME280;42700;42.524;12.052;2022-12-07T00:24:16;97765.06;;;10.95;100.00
56198;BME280;42700;42.524;12.052;2022-12-07T00:26:41;97757.44;;;10.92;100.00
56198;BME280;42700;42.524;12.052;2022-12-07T00:29:18;97748.81;;;10.89;100.00
56198;BME280;42700;42.524;12.052;2022-12-07T00:31:44;97747.16;;;10.88;100.00
56198;BME280;42700;42.524;12.052;2022-12-07T00:34:13;97792.63;;;10.94;100.00
56198;BME280;42700;42.524;12.052;2022-12-07T00:36:39;97878.63;;;11.01;100.00
56198;BME280;42700;42.524;12.052;2022-12-07T00:39:04;97928.56;;;11.05;100.00
56198;BME280;42700;42.524;12.052;2022-12-07T00:41:30;97971.59;;;11.09;100.00
56198;BME280;42700;42.524;12.052;2022-12-07T00:43:55;97980.22;;;11.11;100.00
56198;BME280;42700;42.524;12.052;2022-12-07T00:46:21;97996.16;;;11.11;100.00
56198;BME280;42700;42.524;12.052;2022-12-07T00:48:47;97980.22;;;11.11;100.00
56198;BME280;42700;42.524;12.052;2022-12-07T00:51:14;98010.09;;;11.13;100.00
56198;BME280;42700;42.524;12.052;2022-12-07T00:53:40;98059.25;;;11.17;100.00
56198;BME280;42700;42.524;12.052;2022-12-07T00:56:06;98134.66;;;11.24;100.00
56198;BME280;42700;42.524;12.052;2022-12-07T00:58:32;98204.75;;;11.32;100.00
56198;BME280;42700;42.524;12.052;2022-12-07T01:00:59;98263.56;;;11.37;100.00
56198;BME280;42700;42.524;12.052;2022-12-07T01:03:25;98352.00;;;11.47;100.00
56198;BME280;42700;42.524;12.052;2022-12-07T01:05:51;98443.94;;;11.58;100.00
56198;BME280;42700;42.524;12.052;2022-12-07T01:08:17;98540.91;;;11.72;100.00
56198;BME280;42700;42.524;12.052;2022-12-07T01:10:43;98583.50;;;11.80;100.00
56198;BME280;42700;42.524;12.052;2022-12-07T01:13:08;98620.09;;;11.86;100.00
56198;BME280;42700;42.524;12.052;2022-12-07T01:15:34;98654.09;;;11.92;100.00
56198;BME280;42700;42.524;12.052;2022-12-07T01:17:59;98685.38;;;11.98;100.00
56198;BME280;42700;42.524;12.052;2022-12-07T01:20:25;98722.00;;;12.05;100.00
56198;BME280;42700;42.524;12.052;2022-12-07T01:22:50;98741.00;;;12.10;100.00
56198;BME280;42700;42.524;12.052;2022-12-07T01:25:16;98791.59;;;12.18;100.00
56198;BME280;42700;42.524;12.052;2022-12-07T01:27:41;98831.56;;;12.26;100.00
56198;BME280;42700;42.524;12.052;2022-12-07T01:30:07;98880.56;;;12.33;100.00
56198;BME280;42700;42.524;12.052;2022-12-07T01:32:33;98930.22;;;12.43;100.00
56198;BME280;42700;42.524;12.052;2022-12-07T01:34:59;98944.91;;;12.47;100.00
56198;BME280;42700;42.524;12.052;2022-12-07T01:37:24;98992.22;;;12.53;100.00
56198;BME280;42700;42.524;12.052;2022-12-07T01:39:50;98999.72;;;12.58;100.00
56198;BME280;42700;42.524;12.052;2022-12-07T01:42:16;99022.25;;;12.63;100.00
56198;BME280;42700;42.524;12.052;2022-12-07T01:47:26;98875.00;;;12.53;100.00
56198;BME280;42700;42.524;12.052;2022-12-07T01:49:51;98764.88;;;12.44;100.00
56198;BME280;42700;42.524;12.052;2022-12-07T01:52:18;98683.16;;;12.36;100.00
56198;BME280;42700;42.524;12.052;2022-12-07T01:54:47;98568.94;;;12.25;100.00
56198;BME280;42700;42.524;12.052;2022-12-07T01:57:14;98419.53;;;12.12;100.00
56198;BME280;42700;42.524;12.052;2022-12-07T01:59:41;98310.72;;;12.00;100.00
56198;BME280;42700;42.524;12.052;2022-12-07T02:02:10;98227.56;;;11.90;100.00
56198;BME280;42700;42.524;12.052;2022-12-07T02:04:38;98151.41;;;11.81;100.00
56198;BME280;42700;42.524;12.052;2022-12-07T02:07:04;98083.94;;;11.74;100.00
56198;BME280;42700;42.524;12.052;2022-12-07T02:09:30;98057.03;;;11.69;100.00
56198;BME280;42700;42.524;12.052;2022-12-07T02:11:56;97933.75;;;11.53;100.00
56198;BME280;42700;42.524;12.052;2022-12-07T02:14:22;97861.38;;;11.43;100.00
56198;BME280;42700;42.524;12.052;2022-12-07T02:17:32;97836.16;;;11.39;100.00
56198;BME280;42700;42.524;12.052;2022-12-07T02:22:44;97832.53;;;11.32;100.00
56198;BME280;42700;42.524;12.052;2022-12-07T02:30:20;97803.38;;;11.23;100.00
56198;BME280;42700;42.524;12.052;2022-12-07T02:35:32;97824.63;;;11.23;100.00
56198;BME280;42700;42.524;12.052;2022-12-07T02:38:16;97838.94;;;11.22;100.00
56198;BME280;42700;42.524;12.052;2022-12-07T02:40:51;97876.63;;;11.26;100.00
56198;BME280;42700;42.524;12.052;2022-12-07T02:43:19;97861.84;;;11.23;100.00
56198;BME280;42700;42.524;12.052;2022-12-07T02:45:47;97816.38;;;11.18;100.00
56198;BME280;42700;42.524;12.052;2022-12-07T02:48:13;97797.13;;;11.16;100.00
56198;BME280;42700;42.524;12.052;2022-12-07T02:50:44;97827.84;;;11.19;100.00
56198;BME280;42700;42.524;12.052;2022-12-07T02:53:29;97864.69;;;11.22;100.00
56198;BME280;42700;42.524;12.052;2022-12-07T02:55:54;97855.25;;;11.19;100.00
56198;BME280;42700;42.524;12.052;2022-12-07T02:58:23;97786.84;;;11.13;100.00
56198;BME280;42700;42.524;12.052;2022-12-07T03:01:01;97666.41;;;10.98;100.00
56198;BME280;42700;42.524;12.052;2022-12-07T03:03:29;97687.00;;;10.96;100.00
56198;BME280;42700;42.524;12.052;2022-12-07T03:06:09;97675.53;;;10.95;100.00
56198;BME280;42700;42.524;12.052;2022-12-07T03:11:03;97645.22;;;10.89;100.00
56198;BME280;42700;42.524;12.052;2022-12-07T03:19:04;97912.56;;;11.14;100.00
56198;BME280;42700;42.524;12.052;2022-12-07T03:21:31;97972.19;;;11.19;100.00
56198;BME280;42700;42.524;12.052;2022-12-07T03:23:58;98049.59;;;11.24;100.00
56198;BME280;42700;42.524;12.052;2022-12-07T03:26:30;98026.66;;;11.23;100.00
56198;BME280;42700;42.524;12.052;2022-12-07T03:28:58;98018.03;;;11.21;100.00
56198;BME280;42700;42.524;12.052;2022-12-07T03:31:26;98019.69;;;11.22;100.00
56198;BME280;42700;42.524;12.052;2022-12-07T03:36:21;98131.00;;;11.34;100.00
56198;BME280;42700;42.524;12.052;2022-12-07T03:39:11;98171.38;;;11.37;100.00
56198;BME280;42700;42.524;12.052;2022-12-07T03:41:37;98180.16;;;11.38;100.00
56198;BME280;42700;42.524;12.052;2022-12-07T03:44:04;98194.97;;;11.40;100.00
56198;BME280;42700;42.524;12.052;2022-12-07T03:51:45;98358.81;;;11.58;100.00
56198;BME280;42700;42.524;12.052;2022-12-07T03:54:24;98401.53;;;11.64;100.00
56198;BME280;42700;42.524;12.052;2022-12-07T03:56:52;98318.09;;;11.57;100.00
56198;BME280;42700;42.524;12.052;2022-12-07T03:59:19;98281.19;;;11.54;100.00
56198;BME280;42700;42.524;12.052;2022-12-07T04:01:48;98255.56;;;11.53;100.00
56198;BME280;42700;42.524;12.052;2022-12-07T04:04:16;98298.44;;;11.58;100.00
56198;BME280;42700;42.524;12.052;2022-12-07T04:06:42;98372.94;;;11.67;100.00
56198;BME280;42700;42.524;12.052;2022-12-07T04:09:07;98471.06;;;11.78;100.00
56198;BME280;42700;42.524;12.052;2022-12-07T04:11:33;98568.22;;;11.90;100.00
56198;BME280;42700;42.524;12.052;2022-12-07T04:13:58;98616.19;;;11.98;100.00
56198;BME280;42700;42.524;12.052;2022-12-07T04:16:42;98652.78;;;12.05;100.00
56198;BME280;42700;42.524;12.052;2022-12-07T04:19:08;98652.59;;;12.06;100.00
56198;BME280;42700;42.524;12.052;2022-12-07T04:21:33;98661.13;;;12.10;100.00
56198;BME280;42700;42.524;12.052;2022-12-07T04:23:59;98645.16;;;12.10;100.00
56198;BME280;42700;42.524;12.052;2022-12-07T04:26:24;98616.84;;;12.09;100.00
56198;BME280;42700;42.524;12.052;2022-12-07T04:28:50;98564.91;;;12.05;100.00
56198;BME280;42700;42.524;12.052;2022-12-07T04:31:15;98527.00;;;12.03;100.00
56198;BME280;42700;42.524;12.052;2022-12-07T04:33:41;98517.16;;;12.03;100.00
56198;BME280;42700;42.524;12.052;2022-12-07T04:36:06;98534.00;;;12.04;100.00
56198;BME280;42700;42.524;12.052;2022-12-07T04:38:32;98560.28;;;12.07;100.00
56198;BME280;42700;42.524;12.052;2022-12-07T04:40:57;98561.94;;;12.08;100.00
56198;BME280;42700;42.524;12.052;2022-12-07T04:43:23;98525.00;;;12.05;100.00
56198;BME280;42700;42.524;12.052;2022-12-07T04:45:49;98506.53;;;12.03;100.00
56198;BME280;42700;42.524;12.052;2022-12-07T04:48:15;98470.44;;;12.00;100.00
56198;BME280;42700;42.524;12.052;2022-12-07T04:50:41;98458.13;;;11.99;100.00
56198;BME280;42700;42.524;12.052;2022-12-07T04:53:06;98439.66;;;11.98;100.00
56198;BME280;42700;42.524;12.052;2022-12-07T04:55:32;98419.53;;;11.95;100.00
56198;BME280;42700;42.524;12.052;2022-12-07T04:57:57;98375.59;;;11.91;100.00
56198;BME280;42700;42.524;12.052;2022-12-07T05:00:23;98335.00;;;11.89;100.00
56198;BME280;42700;42.524;12.052;2022-12-07T05:02:48;98330.66;;;11.88;100.00
56198;BME280;42700;42.524;12.052;2022-12-07T05:05:14;98307.91;;;11.86;100.00
56198;BME280;42700;42.524;12.052;2022-12-07T05:07:39;98329.03;;;11.87;100.00
56198;BME280;42700;42.524;12.052;2022-12-07T05:10:05;98361.63;;;11.89;100.00
56198;BME280;42700;42.524;12.052;2022-12-07T05:12:31;98325.53;;;11.87;100.00
56198;BME280;42700;42.524;12.052;2022-12-07T05:14:56;98331.69;;;11.87;100.00
56198;BME280;42700;42.524;12.052;2022-12-07T05:17:22;98387.94;;;11.92;100.00
56198;BME280;42700;42.524;12.052;2022-12-07T05:19:47;98411.56;;;11.95;100.00
56198;BME280;42700;42.524;12.052;2022-12-07T05:22:13;98431.81;;;11.96;100.00
56198;BME280;42700;42.524;12.052;2022-12-07T05:24:39;98438.00;;;11.97;100.00
56198;BME280;42700;42.524;12.052;2022-12-07T05:27:04;98412.53;;;11.94;100.00
56198;BME280;42700;42.524;12.052;2022-12-07T05:29:30;98393.25;;;11.92;100.00
56198;BME280;42700;42.524;12.052;2022-12-07T05:31:55;98371.97;;;11.92;100.00
56198;BME280;42700;42.524;12.052;2022-12-07T05:34:21;98333.34;;;11.88;100.00
56198;BME280;42700;42.524;12.052;2022-12-07T05:36:46;98343.00;;;11.89;100.00
56198;BME280;42700;42.524;12.052;2022-12-07T05:39:12;98383.44;;;11.93;100.00
56198;BME280;42700;42.524;12.052;2022-12-07T05:41:38;98408.88;;;11.95;100.00
56198;BME280;42700;42.524;12.052;2022-12-07T05:44:22;98368.63;;;11.90;100.00
56198;BME280;42700;42.524;12.052;2022-12-07T05:46:47;98435.34;;;11.97;100.00
56198;BME280;42700;42.524;12.052;2022-12-07T05:49:13;98448.47;;;11.98;100.00
56198;BME280;42700;42.524;12.052;2022-12-07T05:51:38;98409.88;;;11.94;100.00
56198;BME280;42700;42.524;12.052;2022-12-07T05:54:04;98488.09;;;12.02;100.00
56198;BME280;42700;42.524;12.052;2022-12-07T05:56:29;98494.22;;;12.02;100.00
56198;BME280;42700;42.524;12.052;2022-12-07T05:58:55;98420.34;;;11.96;100.00
56198;BME280;42700;42.524;12.052;2022-12-07T06:01:39;98479.06;;;12.03;100.00
56198;BME280;42700;42.524;12.052;2022-12-07T06:04:05;98476.41;;;12.03;100.00
56198;BME280;42700;42.524;12.052;2022-12-07T06:06:30;98516.03;;;12.06;100.00
56198;BME280;42700;42.524;12.052;2022-12-07T06:08:56;98568.63;;;12.12;100.00
56198;BME280;42700;42.524;12.052;2022-12-07T06:11:21;98605.56;;;12.15;100.00
56198;BME280;42700;42.524;12.052;2022-12-07T06:14:05;98625.53;;;12.19;100.00
56198;BME280;42700;42.524;12.052;2022-12-07T06:16:31;98563.28;;;12.12;100.00
56198;BME280;42700;42.524;12.052;2022-12-07T06:18:57;98605.19;;;12.18;100.00
56198;BME280;42700;42.524;12.052;2022-12-07T06:21:22;98629.84;;;12.20;100.00
56198;BME280;42700;42.524;12.052;2022-12-07T06:23:48;98650.84;;;12.23;100.00
56198;BME280;42700;42.524;12.052;2022-12-07T06:26:13;98664.81;;;12.25;100.00
56198;BME280;42700;42.524;12.052;2022-12-07T06:28:39;98692.78;;;12.29;100.00
56198;BME280;42700;42.524;12.052;2022-12-07T06:31:05;98635.69;;;12.24;100.00
56198;BME280;42700;42.524;12.052;2022-12-07T06:33:31;98650.50;;;12.26;100.00
56198;BME280;42700;42.524;12.052;2022-12-07T06:35:56;98522.34;;;12.13;100.00
56198;BME280;42700;42.524;12.052;2022-12-07T06:38:22;98569.59;;;12.19;100.00
56198;BME280;42700;42.524;12.052;2022-12-07T06:40:48;98639.00;;;12.26;100.00
56198;BME280;42700;42.524;12.052;2022-12-07T06:43:13;98703.09;;;12.32;100.00
56198;BME280;42700;42.524;12.052;2022-12-07T06:45:40;98743.41;;;12.37;100.00
56198;BME280;42700;42.524;12.052;2022-12-07T06:48:05;98786.03;;;12.46;100.00
56198;BME280;42700;42.524;12.052;2022-12-07T06:50:31;98841.34;;;12.52;100.00
56198;BME280;42700;42.524;12.052;2022-12-07T06:52:56;98885.00;;;12.59;100.00
56198;BME280;42700;42.524;12.052;2022-12-07T06:55:22;98914.34;;;12.67;100.00
56198;BME280;42700;42.524;12.052;2022-12-07T06:57:47;98933.34;;;12.72;100.00
56198;BME280;42700;42.524;12.052;2022-12-07T07:00:13;98982.38;;;12.80;100.00
56198;BME280;42700;42.524;12.052;2022-12-07T07:02:38;99020.72;;;12.87;100.00
56198;BME280;42700;42.524;12.052;2022-12-07T07:05:04;99059.06;;;12.94;100.00
56198;BME280;42700;42.524;12.052;2022-12-07T07:07:29;99102.78;;;13.01;100.00
56198;BME280;42700;42.524;12.052;2022-12-07T07:09:55;99166.69;;;13.11;100.00
56198;BME280;42700;42.524;12.052;2022-12-07T07:12:20;99223.59;;;13.20;100.00
56198;BME280;42700;42.524;12.052;2022-12-07T07:14:46;99245.28;;;13.25;100.00
56198;BME280;42700;42.524;12.052;2022-12-07T07:17:12;99290.84;;;13.32;100.00
56198;BME280;42700;42.524;12.052;2022-12-07T07:19:37;99321.47;;;13.37;100.00
56198;BME280;42700;42.524;12.052;2022-12-07T07:22:03;99369.38;;;13.47;100.00
56198;BME280;42700;42.524;12.052;2022-12-07T07:24:29;99333.19;;;13.44;100.00
56198;BME280;42700;42.524;12.052;2022-12-07T07:26:54;99269.44;;;13.41;100.00
56198;BME280;42700;42.524;12.052;2022-12-07T07:29:20;99344.91;;;13.52;100.00
56198;BME280;42700;42.524;12.052;2022-12-07T07:31:46;99357.78;;;13.56;100.00
56198;BME280;42700;42.524;12.052;2022-12-07T07:34:11;99396.91;;;13.65;100.00
56198;BME280;42700;42.524;12.052;2022-12-07T07:36:37;99429.31;;;13.71;100.00
56198;BME280;42700;42.524;12.052;2022-12-07T07:39:02;99358.00;;;13.63;100.00
56198;BME280;42700;42.524;12.052;2022-12-07T07:41:28;99368.38;;;13.66;100.00
56198;BME280;42700;42.524;12.052;2022-12-07T07:43:53;99304.63;;;13.63;100.00
56198;BME280;42700;42.524;12.052;2022-12-07T07:46:19;99397.81;;;13.74;100.00
56198;BME280;42700;42.524;12.052;2022-12-07T07:48:44;99360.72;;;13.71;100.00
56198;BME280;42700;42.524;12.052;2022-12-07T07:51:09;99203.81;;;13.57;100.00
56198;BME280;42700;42.524;12.052;2022-12-07T07:53:35;99095.53;;;13.46;100.00
56198;BME280;42700;42.524;12.052;2022-12-07T07:56:01;99031.31;;;13.39;100.00
56198;BME280;42700;42.524;12.052;2022-12-07T07:58:26;99061.00;;;13.44;100.00
56198;BME280;42700;42.524;12.052;2022-12-07T08:00:52;99192.16;;;13.58;100.00
56198;BME280;42700;42.524;12.052;2022-12-07T08:03:18;99312.53;;;13.73;100.00
56198;BME280;42700;42.524;12.052;2022-12-07T08:05:43;99270.28;;;13.68;100.00
56198;BME280;42700;42.524;12.052;2022-12-07T08:08:09;99374.66;;;13.83;100.00
56198;BME280;42700;42.524;12.052;2022-12-07T08:10:34;99474.06;;;13.95;100.00
56198;BME280;42700;42.524;12.052;2022-12-07T08:13:00;99550.59;;;14.04;100.00
56198;BME280;42700;42.524;12.052;2022-12-07T08:15:41;99645.91;;;14.21;100.00
56198;BME280;42700;42.524;12.052;2022-12-07T08:18:07;99674.00;;;14.26;100.00
56198;BME280;42700;42.524;12.052;2022-12-07T08:20:34;99687.06;;;14.29;100.00
56198;BME280;42700;42.524;12.052;2022-12-07T08:23:00;99752.97;;;14.38;100.00
56198;BME280;42700;42.524;12.052;2022-12-07T08:25:26;99909.59;;;14.58;100.00
56198;BME280;42700;42.524;12.052;2022-12-07T08:27:52;99817.59;;;14.51;100.00
56198;BME280;42700;42.524;12.052;2022-12-07T08:30:17;99998.75;;;14.77;100.00
56198;BME280;42700;42.524;12.052;2022-12-07T08:32:46;100200.84;;;15.09;100.00
56198;BME280;42700;42.524;12.052;2022-12-07T08:35:12;100149.03;;;15.10;100.00
56198;BME280;42700;42.524;12.052;2022-12-07T08:37:38;100479.34;;;15.56;100.00
56198;BME280;42700;42.524;12.052;2022-12-07T08:40:04;100410.41;;;15.58;100.00
56198;BME280;42700;42.524;12.052;2022-12-07T08:42:30;100064.56;;;15.25;100.00
56198;BME280;42700;42.524;12.052;2022-12-07T08:45:12;100084.41;;;15.32;100.00
56198;BME280;42700;42.524;12.052;2022-12-07T08:47:39;100095.13;;;15.32;100.00
56198;BME280;42700;42.524;12.052;2022-12-07T08:50:06;100123.41;;;15.35;100.00
56198;BME280;42700;42.524;12.052;2022-12-07T08:52:33;100123.56;;;15.34;100.00
56198;BME280;42700;42.524;12.052;2022-12-07T08:54:59;100202.31;;;15.41;100.00
56198;BME280;42700;42.524;12.052;2022-12-07T08:57:26;100263.16;;;15.48;100.00
56198;BME280;42700;42.524;12.052;2022-12-07T08:59:52;100166.94;;;15.37;100.00
56198;BME280;42700;42.524;12.052;2022-12-07T09:02:17;100268.06;;;15.53;100.00
56198;BME280;42700;42.524;12.052;2022-12-07T09:04:43;100328.38;;;15.57;100.00
56198;BME280;42700;42.524;12.052;2022-12-07T09:07:08;100376.00;;;15.63;100.00
56198;BME280;42700;42.524;12.052;2022-12-07T09:09:34;100420.97;;;15.69;100.00
56198;BME280;42700;42.524;12.052;2022-12-07T09:11:59;100492.50;;;15.79;100.00
56198;BME280;42700;42.524;12.052;2022-12-07T09:14:25;100501.22;;;15.81;100.00
56198;BME280;42700;42.524;12.052;2022-12-07T09:16:50;100478.09;;;15.80;100.00
56198;BME280;42700;42.524;12.052;2022-12-07T09:19:15;100323.84;;;15.67;100.00
56198;BME280;42700;42.524;12.052;2022-12-07T09:21:41;100394.34;;;15.78;100.00
56198;BME280;42700;42.524;12.052;2022-12-07T09:24:06;100468.47;;;15.87;100.00
56198;BME280;42700;42.524;12.052;2022-12-07T09:26:32;100797.47;;;16.24;100.00
56198;BME280;42700;42.524;12.052;2022-12-07T09:28:58;100998.28;;;16.58;100.00
56198;BME280;42700;42.524;12.052;2022-12-07T09:31:24;101082.81;;;16.73;100.00
56198;BME280;42700;42.524;12.052;2022-12-07T09:33:54;101419.09;;;17.18;100.00
56198;BME280;42700;42.524;12.052;2022-12-07T09:36:20;101667.09;;;17.62;100.00
56198;BME280;42700;42.524;12.052;2022-12-07T09:38:45;102234.41;;;18.44;100.00
56198;BME280;42700;42.524;12.052;2022-12-07T09:41:11;102745.28;;;19.16;100.00
56198;BME280;42700;42.524;12.052;2022-12-07T09:43:36;103121.75;;;19.83;100.00
56198;BME280;42700;42.524;12.052;2022-12-07T09:46:04;103190.00;;;19.98;100.00
56198;BME280;42700;42.524;12.052;2022-12-07T09:48:31;103247.13;;;20.04;100.00
56198;BME280;42700;42.524;12.052;2022-12-07T09:50:58;103048.91;;;19.83;100.00
56198;BME280;42700;42.524;12.052;2022-12-07T09:53:25;103673.78;;;20.44;100.00
56198;BME280;42700;42.524;12.052;2022-12-07T09:55:52;103614.94;;;20.50;100.00
56198;BME280;42700;42.524;12.052;2022-12-07T09:58:26;103428.72;;;20.34;100.00
56198;BME280;42700;42.524;12.052;2022-12-07T10:01:27;103106.66;;;20.06;100.00
56198;BME280;42700;42.524;12.052;2022-12-07T10:03:54;102719.19;;;19.66;100.00
56198;BME280;42700;42.524;12.052;2022-12-07T10:06:20;102395.53;;;19.32;100.00
56198;BME280;42700;42.524;12.052;2022-12-07T10:08:46;102235.03;;;19.17;100.00
56198;BME280;42700;42.524;12.052;2022-12-07T10:11:11;102053.34;;;18.98;100.00
56198;BME280;42700;42.524;12.052;2022-12-07T10:13:43;101925.66;;;18.90;100.00
56198;BME280;42700;42.524;12.052;2022-12-07T10:18:49;101687.94;;;18.67;100.00
56198;BME280;42700;42.524;12.052;2022-12-07T10:21:16;101651.38;;;18.64;100.00
56198;BME280;42700;42.524;12.052;2022-12-07T10:24:15;101579.09;;;18.59;100.00
56198;BME280;42700;42.524;12.052;2022-12-07T10:29:00;101240.69;;;18.22;100.00
56198;BME280;42700;42.524;12.052;2022-12-07T10:31:26;101120.78;;;18.10;100.00
56198;BME280;42700;42.524;12.052;2022-12-07T10:33:53;101112.00;;;18.08;100.00
56198;BME280;42700;42.524;12.052;2022-12-07T10:36:24;101042.66;;;18.02;100.00
56198;BME280;42700;42.524;12.052;2022-12-07T10:38:51;101001.91;;;17.97;100.00
56198;BME280;42700;42.524;12.052;2022-12-07T10:41:16;100978.72;;;17.96;100.00
56198;BME280;42700;42.524;12.052;2022-12-07T10:43:49;100842.34;;;17.78;100.00
56198;BME280;42700;42.524;12.052;2022-12-07T10:46:25;100779.44;;;17.71;100.00
56198;BME280;42700;42.524;12.052;2022-12-07T10:51:42;100841.38;;;17.79;100.00
56198;BME280;42700;42.524;12.052;2022-12-07T10:54:14;100696.72;;;17.65;100.00
56198;BME280;42700;42.524;12.052;2022-12-07T11:01:42;100537.63;;;17.43;100.00
56198;BME280;42700;42.524;12.052;2022-12-07T11:04:48;100505.69;;;17.40;100.00
56198;BME280;42700;42.524;12.052;2022-12-07T11:12:09;100543.00;;;17.43;100.00
56198;BME280;42700;42.524;12.052;2022-12-07T11:14:43;100596.13;;;17.49;100.00
56198;BME280;42700;42.524;12.052;2022-12-07T11:22:43;101045.34;;;17.92;100.00
56198;BME280;42700;42.524;12.052;2022-12-07T11:33:33;101231.47;;;18.25;100.00
56198;BME280;42700;42.524;12.052;2022-12-07T11:36:14;101494.97;;;18.57;100.00
56198;BME280;42700;42.524;12.052;2022-12-07T11:41:37;101525.84;;;18.63;100.00
56198;BME280;42700;42.524;12.052;2022-12-07T11:46:40;101431.47;;;18.55;100.00
56198;BME280;42700;42.524;12.052;2022-12-07T11:49:12;101132.81;;;18.25;100.00
56198;BME280;42700;42.524;12.052;2022-12-07T11:51:40;101074.34;;;18.18;100.00
56198;BME280;42700;42.524;12.052;2022-12-07T11:54:16;101053.97;;;18.15;100.00
56198;BME280;42700;42.524;12.052;2022-12-07T11:56:43;100993.41;;;18.11;100.00
56198;BME280;42700;42.524;12.052;2022-12-07T11:59:13;100978.09;;;18.12;100.00
56198;BME280;42700;42.524;12.052;2022-12-07T12:04:21;100839.47;;;17.99;100.00
56198;BME280;42700;42.524;12.052;2022-12-07T12:06:47;100769.31;;;17.93;100.00
56198;BME280;42700;42.524;12.052;2022-12-07T12:22:33;100451.84;;;17.60;100.00
56198;BME280;42700;42.524;12.052;2022-12-07T12:25:00;100288.69;;;17.44;100.00
56198;BME280;42700;42.524;12.052;2022-12-07T12:27:38;100256.59;;;17.42;100.00
56198;BME280;42700;42.524;12.052;2022-12-07T12:30:06;100288.22;;;17.48;100.00
56198;BME280;42700;42.524;12.052;2022-12-07T12:35:39;100313.06;;;17.50;100.00
56198;BME280;42700;42.524;12.052;2022-12-07T12:37:46;100355.72;;;17.53;100.00
56198;BME280;42700;42.524;12.052;2022-12-07T12:45:20;100323.81;;;17.50;100.00
56198;BME280;42700;42.524;12.052;2022-12-07T12:55:16;99934.97;;;17.11;100.00
56198;BME280;42700;42.524;12.052;2022-12-07T12:57:46;99803.41;;;16.95;100.00
56198;BME280;42700;42.524;12.052;2022-12-07T13:02:47;99803.03;;;16.82;100.00
56198;BME280;42700;42.524;12.052;2022-12-07T13:12:59;99341.13;;;15.58;100.00
56198;BME280;42700;42.524;12.052;2022-12-07T13:15:33;99313.50;;;15.49;100.00
56198;BME280;42700;42.524;12.052;2022-12-07T13:17:59;99307.50;;;15.39;100.00
56198;BME280;42700;42.524;12.052;2022-12-07T13:20:45;99610.56;;;15.67;100.00
56198;BME280;42700;42.524;12.052;2022-12-07T13:23:10;99692.78;;;15.75;100.00
56198;BME280;42700;42.524;12.052;2022-12-07T13:28:22;99801.53;;;15.85;100.00
56198;BME280;42700;42.524;12.052;2022-12-07T13:30:59;99890.00;;;15.94;100.00
56198;BME280;42700;42.524;12.052;2022-12-07T13:33:25;99841.22;;;15.90;100.00
56198;BME280;42700;42.524;12.052;2022-12-07T13:35:55;99899.56;;;15.96;100.00
56198;BME280;42700;42.524;12.052;2022-12-07T13:38:31;99970.25;;;16.03;100.00
56198;BME280;42700;42.524;12.052;2022-12-07T13:41:10;99961.25;;;16.04;100.00
56198;BME280;42700;42.524;12.052;2022-12-07T13:43:43;99954.19;;;16.03;100.00
56198;BME280;42700;42.524;12.052;2022-12-07T13:46:09;99920.69;;;15.99;100.00
56198;BME280;42700;42.524;12.052;2022-12-07T13:48:43;99835.03;;;15.90;100.00
56198;BME280;42700;42.524;12.052;2022-12-07T13:51:16;99793.66;;;15.84;100.00
56198;BME280;42700;42.524;12.052;2022-12-07T13:53:49;99819.44;;;15.85;100.00
56198;BME280;42700;42.524;12.052;2022-12-07T13:56:15;99693.13;;;15.72;100.00
56198;BME280;42700;42.524;12.052;2022-12-07T13:58:41;99694.28;;;15.69;100.00
56198;BME280;42700;42.524;12.052;2022-12-07T14:01:06;99704.16;;;15.68;100.00
56198;BME280;42700;42.524;12.052;2022-12-07T14:03:33;99622.78;;;15.61;100.00
56198;BME280;42700;42.524;12.052;2022-12-07T14:06:03;99646.38;;;15.58;100.00
56198;BME280;42700;42.524;12.052;2022-12-07T14:08:29;99628.78;;;15.55;100.00
56198;BME280;42700;42.524;12.052;2022-12-07T14:10:55;99589.25;;;15.49;100.00
56198;BME280;42700;42.524;12.052;2022-12-07T14:15:56;99550.91;;;15.40;100.00
56198;BME280;42700;42.524;12.052;2022-12-07T14:18:27;99597.09;;;15.42;100.00
56198;BME280;42700;42.524;12.052;2022-12-07T14:21:06;99597.28;;;15.41;100.00
56198;BME280;42700;42.524;12.052;2022-12-07T14:23:39;99576.88;;;15.40;100.00
56198;BME280;42700;42.524;12.052;2022-12-07T14:26:12;99592.91;;;15.40;100.00
56198;BME280;42700;42.524;12.052;2022-12-07T14:28:39;99612.34;;;15.42;100.00
56198;BME280;42700;42.524;12.052;2022-12-07T14:31:18;99628.38;;;15.42;100.00
56198;BME280;42700;42.524;12.052;2022-12-07T14:33:46;99571.81;;;15.37;100.00